Agol, India

10:41 PM IST on May 27, 2017 (GMT +0530)
Bhagirath Road | | Change Station

Elev 150 ft 23.05 °N, 72.54 °E | Updated 2 minutes ago

Clear
Clear
95.4 °F
Feels Like 113 °F
N
0.0
Wind Variable Wind from North
Gusts 1.2 mph

Today
High -- | Low -- °F
--% Chance of Precip.
Yesterday
High -- | Low -- °F
Precip. -- in
Pressure 29.59 in
Visibility 2.5 miles
Clouds
Heat Index 113 °F
Dew Point 79 °F
Humidity 59%
Rainfall 0.00 in
Snow Depth Not available.
5:55 AM 7:20 PM
Waxing Crescent, 5% visible
METAR VAAH 271700Z 23007KT 4000 FU NSC 33/26 Q1002 NOSIG
Pressure 29.59 in
Visibility 2.5 miles
Clouds
Heat Index 113 °F
Dew Point 79 °F
Humidity 59%
Rainfall 0.00 in
Snow Depth Not available.
5:55 AM 7:20 PM
Waxing Crescent, 5% visible
METAR VAAH 271700Z 23007KT 4000 FU NSC 33/26 Q1002 NOSIG

Get Severe Weather Alerts

Thanks for signing up!

Be on the lookout for a verification email in your inbox.

You'll start receiving the daily forecast at 6 AM.

×

10-Day Weather Forecast

No radar image for this location.
×

Almanac

Astronomy

May. 27, 2017 Rise Set
Actual Time
Civil Twilight
Nautical Twilight
Astronomical Twilight
Moon
Length of Visible Light
Length of Day
Tomorrow will be .
, % of the Moon is Illuminated

Today's Extremes

Country Highs Country Lows

Community

WunderPhotos

Category 6

Welcome to Category 6. This is the collective home for Weather Underground's featured writeups by Dr. Jeff Masters (right), Bob Henson (left), Chris Burt, and other regular contributors.

Nearby

Air Quality

  Air Quality AQ Index Pollutant
Not available.

Snow Depth

Station Depth Elevation

Earthquake Activity

City Distance Mag. Time & Date
Minimum magnitude displayed is 2.5.

Coastal Water Temperatures

Place Temperature

Stations

Nearby Weather Stations

Station Location Temp. Windchill Dew Point Humidity Wind Precip. Elev Updated Type